sensor_id;sensor_type;location;lat;lon;timestamp;P1;durP1;ratioP1;P2;durP2;ratioP2
41837;SDS011;27511;52.042;5.178;2022-08-01T00:01:48;9.70;;;4.10;;
41837;SDS011;27511;52.042;5.178;2022-08-01T00:04:14;7.50;;;3.72;;
41837;SDS011;27511;52.042;5.178;2022-08-01T00:06:39;5.95;;;3.88;;
41837;SDS011;27511;52.042;5.178;2022-08-01T00:09:04;5.78;;;4.10;;
41837;SDS011;27511;52.042;5.178;2022-08-01T00:11:30;8.57;;;4.40;;
41837;SDS011;27511;52.042;5.178;2022-08-01T00:13:56;6.22;;;4.05;;
41837;SDS011;27511;52.042;5.178;2022-08-01T00:16:21;6.57;;;4.20;;
41837;SDS011;27511;52.042;5.178;2022-08-01T00:18:50;5.65;;;4.20;;
41837;SDS011;27511;52.042;5.178;2022-08-01T00:21:16;6.05;;;4.38;;
41837;SDS011;27511;52.042;5.178;2022-08-01T00:23:42;7.32;;;4.90;;
41837;SDS011;27511;52.042;5.178;2022-08-01T00:26:10;9.48;;;5.93;;
41837;SDS011;27511;52.042;5.178;2022-08-01T00:28:36;9.98;;;5.85;;
41837;SDS011;27511;52.042;5.178;2022-08-01T00:31:01;9.50;;;6.05;;
41837;SDS011;27511;52.042;5.178;2022-08-01T00:33:27;8.77;;;5.90;;
41837;SDS011;27511;52.042;5.178;2022-08-01T00:35:53;9.65;;;5.97;;
41837;SDS011;27511;52.042;5.178;2022-08-01T00:38:18;10.35;;;5.93;;
41837;SDS011;27511;52.042;5.178;2022-08-01T00:40:44;10.90;;;7.22;;
41837;SDS011;27511;52.042;5.178;2022-08-01T00:43:09;11.43;;;6.68;;
41837;SDS011;27511;52.042;5.178;2022-08-01T00:45:35;13.48;;;7.28;;
41837;SDS011;27511;52.042;5.178;2022-08-01T00:48:00;13.63;;;8.20;;
41837;SDS011;27511;52.042;5.178;2022-08-01T00:50:26;11.13;;;6.97;;
41837;SDS011;27511;52.042;5.178;2022-08-01T00:52:52;10.30;;;7.03;;
41837;SDS011;27511;52.042;5.178;2022-08-01T00:55:19;11.27;;;6.82;;
41837;SDS011;27511;52.042;5.178;2022-08-01T00:57:45;12.05;;;7.70;;
41837;SDS011;27511;52.042;5.178;2022-08-01T01:00:12;14.23;;;7.55;;
41837;SDS011;27511;52.042;5.178;2022-08-01T01:02:38;11.93;;;7.03;;
41837;SDS011;27511;52.042;5.178;2022-08-01T01:05:03;13.57;;;7.65;;
41837;SDS011;27511;52.042;5.178;2022-08-01T01:07:34;12.43;;;6.22;;
41837;SDS011;27511;52.042;5.178;2022-08-01T01:13:02;11.32;;;6.95;;
41837;SDS011;27511;52.042;5.178;2022-08-01T01:18:29;10.70;;;6.47;;
41837;SDS011;27511;52.042;5.178;2022-08-01T01:23:40;10.07;;;6.45;;
41837;SDS011;27511;52.042;5.178;2022-08-01T01:29:14;13.52;;;7.10;;
41837;SDS011;27511;52.042;5.178;2022-08-01T01:34:20;12.07;;;6.75;;
41837;SDS011;27511;52.042;5.178;2022-08-01T01:36:47;14.85;;;6.97;;
41837;SDS011;27511;52.042;5.178;2022-08-01T01:39:14;15.57;;;8.27;;
41837;SDS011;27511;52.042;5.178;2022-08-01T01:41:41;14.52;;;7.80;;
41837;SDS011;27511;52.042;5.178;2022-08-01T01:44:09;15.30;;;7.95;;
41837;SDS011;27511;52.042;5.178;2022-08-01T01:46:35;15.18;;;7.88;;
41837;SDS011;27511;52.042;5.178;2022-08-01T01:49:01;14.75;;;7.07;;
41837;SDS011;27511;52.042;5.178;2022-08-01T01:51:28;14.13;;;7.22;;
41837;SDS011;27511;52.042;5.178;2022-08-01T01:53:55;13.32;;;7.15;;
41837;SDS011;27511;52.042;5.178;2022-08-01T01:56:23;11.70;;;6.35;;
41837;SDS011;27511;52.042;5.178;2022-08-01T01:58:52;12.60;;;6.93;;
41837;SDS011;27511;52.042;5.178;2022-08-01T02:01:23;11.65;;;6.20;;
41837;SDS011;27511;52.042;5.178;2022-08-01T02:03:51;11.13;;;6.45;;
41837;SDS011;27511;52.042;5.178;2022-08-01T02:06:18;14.23;;;6.82;;
41837;SDS011;27511;52.042;5.178;2022-08-01T02:08:46;15.75;;;7.95;;
41837;SDS011;27511;52.042;5.178;2022-08-01T02:11:12;13.55;;;6.88;;
41837;SDS011;27511;52.042;5.178;2022-08-01T02:13:46;12.63;;;6.70;;
41837;SDS011;27511;52.042;5.178;2022-08-01T02:16:25;15.70;;;6.78;;
41837;SDS011;27511;52.042;5.178;2022-08-01T02:18:53;14.95;;;6.63;;
41837;SDS011;27511;52.042;5.178;2022-08-01T02:21:23;16.00;;;7.82;;
41837;SDS011;27511;52.042;5.178;2022-08-01T02:23:53;13.60;;;5.90;;
41837;SDS011;27511;52.042;5.178;2022-08-01T02:26:23;12.30;;;5.82;;
41837;SDS011;27511;52.042;5.178;2022-08-01T02:28:50;13.27;;;5.63;;
41837;SDS011;27511;52.042;5.178;2022-08-01T02:31:21;9.90;;;5.72;;
41837;SDS011;27511;52.042;5.178;2022-08-01T02:33:57;9.07;;;4.55;;
41837;SDS011;27511;52.042;5.178;2022-08-01T02:36:27;11.70;;;5.35;;
41837;SDS011;27511;52.042;5.178;2022-08-01T02:38:55;10.63;;;5.00;;
41837;SDS011;27511;52.042;5.178;2022-08-01T02:41:24;11.65;;;5.68;;
41837;SDS011;27511;52.042;5.178;2022-08-01T02:43:52;10.13;;;5.53;;
41837;SDS011;27511;52.042;5.178;2022-08-01T02:46:22;8.50;;;4.95;;
41837;SDS011;27511;52.042;5.178;2022-08-01T02:48:52;10.55;;;5.45;;
41837;SDS011;27511;52.042;5.178;2022-08-01T02:51:21;9.93;;;5.93;;
41837;SDS011;27511;52.042;5.178;2022-08-01T02:53:48;11.57;;;6.00;;
41837;SDS011;27511;52.042;5.178;2022-08-01T02:56:16;9.75;;;4.93;;
41837;SDS011;27511;52.042;5.178;2022-08-01T02:58:43;8.10;;;4.93;;
41837;SDS011;27511;52.042;5.178;2022-08-01T03:01:10;9.35;;;6.07;;
41837;SDS011;27511;52.042;5.178;2022-08-01T03:03:38;9.80;;;5.82;;
41837;SDS011;27511;52.042;5.178;2022-08-01T03:06:04;11.43;;;6.63;;
41837;SDS011;27511;52.042;5.178;2022-08-01T03:08:30;11.13;;;6.93;;
41837;SDS011;27511;52.042;5.178;2022-08-01T03:10:57;12.90;;;7.97;;
41837;SDS011;27511;52.042;5.178;2022-08-01T03:13:25;12.38;;;7.07;;
41837;SDS011;27511;52.042;5.178;2022-08-01T03:15:54;14.35;;;8.15;;
41837;SDS011;27511;52.042;5.178;2022-08-01T03:18:22;14.05;;;8.50;;
41837;SDS011;27511;52.042;5.178;2022-08-01T03:20:50;13.85;;;9.57;;
41837;SDS011;27511;52.042;5.178;2022-08-01T03:23:19;12.13;;;8.73;;
41837;SDS011;27511;52.042;5.178;2022-08-01T03:25:47;13.05;;;8.60;;
41837;SDS011;27511;52.042;5.178;2022-08-01T03:28:16;14.35;;;8.88;;
41837;SDS011;27511;52.042;5.178;2022-08-01T03:30:43;12.82;;;8.80;;
41837;SDS011;27511;52.042;5.178;2022-08-01T03:33:10;15.88;;;8.30;;
41837;SDS011;27511;52.042;5.178;2022-08-01T03:35:37;12.75;;;8.10;;
41837;SDS011;27511;52.042;5.178;2022-08-01T03:38:11;13.88;;;8.25;;
41837;SDS011;27511;52.042;5.178;2022-08-01T03:40:43;14.18;;;8.48;;
41837;SDS011;27511;52.042;5.178;2022-08-01T03:43:38;11.98;;;7.20;;
41837;SDS011;27511;52.042;5.178;2022-08-01T03:46:09;8.60;;;6.38;;
41837;SDS011;27511;52.042;5.178;2022-08-01T03:48:43;8.93;;;6.30;;
41837;SDS011;27511;52.042;5.178;2022-08-01T03:51:12;10.52;;;6.47;;
41837;SDS011;27511;52.042;5.178;2022-08-01T03:53:39;10.82;;;6.35;;
41837;SDS011;27511;52.042;5.178;2022-08-01T03:56:07;9.50;;;6.53;;
41837;SDS011;27511;52.042;5.178;2022-08-01T03:58:34;8.52;;;6.18;;
41837;SDS011;27511;52.042;5.178;2022-08-01T04:01:01;11.88;;;6.70;;
41837;SDS011;27511;52.042;5.178;2022-08-01T04:03:27;9.30;;;6.03;;
41837;SDS011;27511;52.042;5.178;2022-08-01T04:05:53;8.50;;;6.10;;
41837;SDS011;27511;52.042;5.178;2022-08-01T04:08:19;9.07;;;5.70;;
41837;SDS011;27511;52.042;5.178;2022-08-01T04:10:44;8.05;;;5.63;;
41837;SDS011;27511;52.042;5.178;2022-08-01T04:13:10;10.55;;;6.05;;
41837;SDS011;27511;52.042;5.178;2022-08-01T04:15:35;7.82;;;5.35;;
41837;SDS011;27511;52.042;5.178;2022-08-01T04:18:01;8.70;;;5.43;;
41837;SDS011;27511;52.042;5.178;2022-08-01T04:20:27;9.95;;;5.53;;
41837;SDS011;27511;52.042;5.178;2022-08-01T04:22:52;6.93;;;5.65;;
41837;SDS011;27511;52.042;5.178;2022-08-01T04:25:22;9.05;;;5.30;;
41837;SDS011;27511;52.042;5.178;2022-08-01T04:27:59;8.02;;;4.53;;
41837;SDS011;27511;52.042;5.178;2022-08-01T04:30:29;7.57;;;5.38;;
41837;SDS011;27511;52.042;5.178;2022-08-01T04:32:59;8.27;;;5.55;;
41837;SDS011;27511;52.042;5.178;2022-08-01T04:35:26;7.85;;;4.85;;
41837;SDS011;27511;52.042;5.178;2022-08-01T04:37:53;8.88;;;5.70;;
41837;SDS011;27511;52.042;5.178;2022-08-01T04:40:20;9.10;;;5.93;;
41837;SDS011;27511;52.042;5.178;2022-08-01T04:42:51;7.53;;;5.40;;
41837;SDS011;27511;52.042;5.178;2022-08-01T04:45:16;9.65;;;6.05;;
41837;SDS011;27511;52.042;5.178;2022-08-01T04:47:43;10.73;;;5.95;;
41837;SDS011;27511;52.042;5.178;2022-08-01T04:50:10;11.02;;;7.13;;
41837;SDS011;27511;52.042;5.178;2022-08-01T04:52:36;7.80;;;6.00;;
41837;SDS011;27511;52.042;5.178;2022-08-01T04:55:03;10.73;;;6.18;;
41837;SDS011;27511;52.042;5.178;2022-08-01T04:57:32;9.05;;;5.97;;
41837;SDS011;27511;52.042;5.178;2022-08-01T05:00:02;10.35;;;6.20;;
41837;SDS011;27511;52.042;5.178;2022-08-01T05:02:28;8.50;;;5.15;;
41837;SDS011;27511;52.042;5.178;2022-08-01T05:04:54;9.30;;;6.03;;
41837;SDS011;27511;52.042;5.178;2022-08-01T05:07:20;10.60;;;5.88;;
41837;SDS011;27511;52.042;5.178;2022-08-01T05:09:46;9.07;;;6.13;;
41837;SDS011;27511;52.042;5.178;2022-08-01T05:12:12;7.38;;;5.57;;
41837;SDS011;27511;52.042;5.178;2022-08-01T05:14:38;8.23;;;5.85;;
41837;SDS011;27511;52.042;5.178;2022-08-01T05:17:05;10.63;;;6.07;;
41837;SDS011;27511;52.042;5.178;2022-08-01T05:19:32;8.85;;;5.72;;
41837;SDS011;27511;52.042;5.178;2022-08-01T05:21:59;8.93;;;5.55;;
41837;SDS011;27511;52.042;5.178;2022-08-01T05:24:29;9.13;;;6.00;;
41837;SDS011;27511;52.042;5.178;2022-08-01T05:27:02;9.00;;;6.20;;
41837;SDS011;27511;52.042;5.178;2022-08-01T05:29:28;9.25;;;5.70;;
41837;SDS011;27511;52.042;5.178;2022-08-01T05:31:54;10.13;;;5.93;;
41837;SDS011;27511;52.042;5.178;2022-08-01T05:34:20;8.00;;;5.35;;
41837;SDS011;27511;52.042;5.178;2022-08-01T05:36:46;7.55;;;5.55;;
41837;SDS011;27511;52.042;5.178;2022-08-01T05:39:12;8.30;;;5.45;;
41837;SDS011;27511;52.042;5.178;2022-08-01T05:41:38;4.75;;;3.45;;
41837;SDS011;27511;52.042;5.178;2022-08-01T05:44:04;4.90;;;2.92;;
41837;SDS011;27511;52.042;5.178;2022-08-01T05:46:31;3.30;;;2.05;;
41837;SDS011;27511;52.042;5.178;2022-08-01T05:48:57;2.60;;;2.10;;
41837;SDS011;27511;52.042;5.178;2022-08-01T05:51:23;3.08;;;1.90;;
41837;SDS011;27511;52.042;5.178;2022-08-01T05:53:49;2.30;;;1.80;;
41837;SDS011;27511;52.042;5.178;2022-08-01T05:56:15;2.42;;;1.50;;
41837;SDS011;27511;52.042;5.178;2022-08-01T05:58:41;1.73;;;1.52;;
41837;SDS011;27511;52.042;5.178;2022-08-01T06:01:06;1.63;;;1.40;;
41837;SDS011;27511;52.042;5.178;2022-08-01T06:03:32;2.00;;;1.50;;
41837;SDS011;27511;52.042;5.178;2022-08-01T06:05:58;2.53;;;1.55;;
41837;SDS011;27511;52.042;5.178;2022-08-01T06:08:24;1.45;;;1.00;;
41837;SDS011;27511;52.042;5.178;2022-08-01T06:10:50;1.80;;;1.27;;
41837;SDS011;27511;52.042;5.178;2022-08-01T06:13:16;1.67;;;1.58;;
41837;SDS011;27511;52.042;5.178;2022-08-01T06:15:42;2.80;;;1.65;;
41837;SDS011;27511;52.042;5.178;2022-08-01T06:18:07;2.63;;;1.60;;
41837;SDS011;27511;52.042;5.178;2022-08-01T06:20:33;2.10;;;1.67;;
41837;SDS011;27511;52.042;5.178;2022-08-01T06:22:58;1.70;;;1.60;;
41837;SDS011;27511;52.042;5.178;2022-08-01T06:25:24;1.80;;;1.70;;
41837;SDS011;27511;52.042;5.178;2022-08-01T06:27:50;2.00;;;1.70;;
41837;SDS011;27511;52.042;5.178;2022-08-01T06:30:15;1.50;;;1.40;;
41837;SDS011;27511;52.042;5.178;2022-08-01T06:32:41;2.72;;;1.80;;
41837;SDS011;27511;52.042;5.178;2022-08-01T06:35:06;1.50;;;1.40;;
41837;SDS011;27511;52.042;5.178;2022-08-01T06:37:32;2.10;;;1.80;;
41837;SDS011;27511;52.042;5.178;2022-08-01T06:40:04;2.08;;;1.63;;
41837;SDS011;27511;52.042;5.178;2022-08-01T06:42:31;2.27;;;1.60;;
41837;SDS011;27511;52.042;5.178;2022-08-01T06:45:04;1.75;;;1.45;;
41837;SDS011;27511;52.042;5.178;2022-08-01T06:47:32;2.33;;;1.40;;
41837;SDS011;27511;52.042;5.178;2022-08-01T06:49:57;2.72;;;1.80;;
41837;SDS011;27511;52.042;5.178;2022-08-01T06:52:23;3.15;;;1.77;;
41837;SDS011;27511;52.042;5.178;2022-08-01T06:54:49;2.47;;;1.75;;
41837;SDS011;27511;52.042;5.178;2022-08-01T06:57:15;1.70;;;1.48;;
41837;SDS011;27511;52.042;5.178;2022-08-01T06:59:40;1.75;;;1.55;;
41837;SDS011;27511;52.042;5.178;2022-08-01T07:02:06;1.75;;;1.38;;
41837;SDS011;27511;52.042;5.178;2022-08-01T07:04:32;2.25;;;1.58;;
41837;SDS011;27511;52.042;5.178;2022-08-01T07:06:58;4.05;;;2.40;;
41837;SDS011;27511;52.042;5.178;2022-08-01T07:09:23;2.47;;;1.70;;
41837;SDS011;27511;52.042;5.178;2022-08-01T07:11:52;2.00;;;1.60;;
41837;SDS011;27511;52.042;5.178;2022-08-01T07:14:19;2.10;;;1.90;;
41837;SDS011;27511;52.042;5.178;2022-08-01T07:16:45;3.20;;;1.70;;
41837;SDS011;27511;52.042;5.178;2022-08-01T07:19:11;2.28;;;1.35;;
41837;SDS011;27511;52.042;5.178;2022-08-01T07:21:37;2.03;;;1.50;;
41837;SDS011;27511;52.042;5.178;2022-08-01T07:24:03;1.77;;;1.60;;
41837;SDS011;27511;52.042;5.178;2022-08-01T07:26:29;1.98;;;1.60;;
41837;SDS011;27511;52.042;5.178;2022-08-01T07:28:55;2.30;;;1.63;;
41837;SDS011;27511;52.042;5.178;2022-08-01T07:31:20;3.20;;;2.03;;
41837;SDS011;27511;52.042;5.178;2022-08-01T07:33:46;3.78;;;2.28;;
41837;SDS011;27511;52.042;5.178;2022-08-01T07:36:11;2.92;;;1.83;;
41837;SDS011;27511;52.042;5.178;2022-08-01T07:38:37;3.42;;;2.50;;
41837;SDS011;27511;52.042;5.178;2022-08-01T07:41:02;4.15;;;2.40;;
41837;SDS011;27511;52.042;5.178;2022-08-01T07:43:28;7.00;;;2.83;;
41837;SDS011;27511;52.042;5.178;2022-08-01T07:45:54;4.72;;;2.65;;
41837;SDS011;27511;52.042;5.178;2022-08-01T07:48:19;8.13;;;3.08;;
41837;SDS011;27511;52.042;5.178;2022-08-01T07:50:48;10.18;;;3.17;;
41837;SDS011;27511;52.042;5.178;2022-08-01T07:53:17;8.10;;;3.40;;
41837;SDS011;27511;52.042;5.178;2022-08-01T07:55:43;6.85;;;2.67;;
41837;SDS011;27511;52.042;5.178;2022-08-01T07:58:08;7.40;;;3.10;;
41837;SDS011;27511;52.042;5.178;2022-08-01T08:00:34;7.65;;;2.90;;
41837;SDS011;27511;52.042;5.178;2022-08-01T08:02:59;6.20;;;2.70;;
41837;SDS011;27511;52.042;5.178;2022-08-01T08:05:25;5.13;;;2.47;;
41837;SDS011;27511;52.042;5.178;2022-08-01T08:07:51;10.80;;;2.90;;
41837;SDS011;27511;52.042;5.178;2022-08-01T08:10:17;7.25;;;3.03;;
41837;SDS011;27511;52.042;5.178;2022-08-01T08:12:42;4.53;;;2.70;;
41837;SDS011;27511;52.042;5.178;2022-08-01T08:15:08;3.72;;;2.75;;
41837;SDS011;27511;52.042;5.178;2022-08-01T08:17:34;5.88;;;2.72;;
41837;SDS011;27511;52.042;5.178;2022-08-01T08:20:00;7.07;;;2.60;;
41837;SDS011;27511;52.042;5.178;2022-08-01T08:22:27;6.07;;;2.78;;
41837;SDS011;27511;52.042;5.178;2022-08-01T08:24:53;6.70;;;2.38;;
41837;SDS011;27511;52.042;5.178;2022-08-01T08:27:18;5.75;;;2.50;;
41837;SDS011;27511;52.042;5.178;2022-08-01T08:29:44;8.07;;;2.80;;
41837;SDS011;27511;52.042;5.178;2022-08-01T08:32:10;9.02;;;2.92;;
41837;SDS011;27511;52.042;5.178;2022-08-01T08:34:35;5.22;;;2.10;;
41837;SDS011;27511;52.042;5.178;2022-08-01T08:37:01;6.88;;;2.67;;
41837;SDS011;27511;52.042;5.178;2022-08-01T08:39:27;5.25;;;2.95;;
41837;SDS011;27511;52.042;5.178;2022-08-01T08:41:54;7.63;;;2.83;;
41837;SDS011;27511;52.042;5.178;2022-08-01T08:44:22;6.05;;;2.30;;
41837;SDS011;27511;52.042;5.178;2022-08-01T08:46:49;6.95;;;3.00;;
41837;SDS011;27511;52.042;5.178;2022-08-01T08:49:23;6.43;;;2.60;;
41837;SDS011;27511;52.042;5.178;2022-08-01T08:51:51;10.25;;;2.40;;
41837;SDS011;27511;52.042;5.178;2022-08-01T08:54:19;4.78;;;2.28;;
41837;SDS011;27511;52.042;5.178;2022-08-01T08:56:49;6.00;;;2.83;;
41837;SDS011;27511;52.042;5.178;2022-08-01T08:59:19;5.38;;;3.00;;
41837;SDS011;27511;52.042;5.178;2022-08-01T09:01:45;4.97;;;2.28;;
41837;SDS011;27511;52.042;5.178;2022-08-01T09:04:11;6.47;;;2.33;;
41837;SDS011;27511;52.042;5.178;2022-08-01T09:06:37;6.22;;;1.98;;
41837;SDS011;27511;52.042;5.178;2022-08-01T09:09:04;5.22;;;2.08;;
41837;SDS011;27511;52.042;5.178;2022-08-01T09:11:30;5.03;;;2.40;;
41837;SDS011;27511;52.042;5.178;2022-08-01T09:14:03;5.57;;;2.08;;
41837;SDS011;27511;52.042;5.178;2022-08-01T09:16:40;8.73;;;2.75;;
41837;SDS011;27511;52.042;5.178;2022-08-01T09:19:08;4.47;;;2.08;;
41837;SDS011;27511;52.042;5.178;2022-08-01T09:21:34;10.45;;;2.13;;
41837;SDS011;27511;52.042;5.178;2022-08-01T09:23:59;7.72;;;2.42;;
41837;SDS011;27511;52.042;5.178;2022-08-01T09:26:31;5.60;;;1.55;;
41837;SDS011;27511;52.042;5.178;2022-08-01T09:28:59;4.97;;;1.70;;
41837;SDS011;27511;52.042;5.178;2022-08-01T09:31:27;2.00;;;1.25;;
41837;SDS011;27511;52.042;5.178;2022-08-01T09:33:58;2.58;;;1.60;;
41837;SDS011;27511;52.042;5.178;2022-08-01T09:36:48;4.70;;;1.75;;
41837;SDS011;27511;52.042;5.178;2022-08-01T09:39:25;5.57;;;1.60;;
41837;SDS011;27511;52.042;5.178;2022-08-01T09:41:54;3.58;;;1.73;;
41837;SDS011;27511;52.042;5.178;2022-08-01T09:44:36;3.63;;;1.52;;
41837;SDS011;27511;52.042;5.178;2022-08-01T09:47:05;4.80;;;1.92;;
41837;SDS011;27511;52.042;5.178;2022-08-01T09:49:32;4.00;;;1.48;;
41837;SDS011;27511;52.042;5.178;2022-08-01T09:52:09;2.78;;;1.92;;
41837;SDS011;27511;52.042;5.178;2022-08-01T09:54:39;4.97;;;1.50;;
41837;SDS011;27511;52.042;5.178;2022-08-01T09:57:07;3.75;;;1.60;;
41837;SDS011;27511;52.042;5.178;2022-08-01T09:59:42;5.75;;;1.95;;
41837;SDS011;27511;52.042;5.178;2022-08-01T10:02:10;4.07;;;2.40;;
41837;SDS011;27511;52.042;5.178;2022-08-01T10:04:45;2.58;;;1.50;;
41837;SDS011;27511;52.042;5.178;2022-08-01T10:07:14;5.03;;;1.80;;
41837;SDS011;27511;52.042;5.178;2022-08-01T10:09:43;6.20;;;1.92;;
41837;SDS011;27511;52.042;5.178;2022-08-01T10:12:10;6.28;;;1.67;;
41837;SDS011;27511;52.042;5.178;2022-08-01T10:14:37;7.15;;;2.47;;
41837;SDS011;27511;52.042;5.178;2022-08-01T10:17:03;3.53;;;1.63;;
41837;SDS011;27511;52.042;5.178;2022-08-01T10:19:36;3.05;;;1.55;;
41837;SDS011;27511;52.042;5.178;2022-08-01T10:22:07;4.95;;;1.70;;
41837;SDS011;27511;52.042;5.178;2022-08-01T10:24:41;4.68;;;1.70;;
41837;SDS011;27511;52.042;5.178;2022-08-01T10:27:08;3.42;;;1.77;;
41837;SDS011;27511;52.042;5.178;2022-08-01T10:29:43;3.53;;;1.63;;
41837;SDS011;27511;52.042;5.178;2022-08-01T10:32:22;6.70;;;2.13;;
41837;SDS011;27511;52.042;5.178;2022-08-01T10:34:49;4.45;;;1.70;;
41837;SDS011;27511;52.042;5.178;2022-08-01T10:37:14;6.60;;;1.92;;
41837;SDS011;27511;52.042;5.178;2022-08-01T10:39:42;3.90;;;1.48;;
41837;SDS011;27511;52.042;5.178;2022-08-01T10:42:09;2.50;;;1.48;;
41837;SDS011;27511;52.042;5.178;2022-08-01T10:44:36;5.03;;;1.50;;
41837;SDS011;27511;52.042;5.178;2022-08-01T10:47:04;4.82;;;1.02;;
41837;SDS011;27511;52.042;5.178;2022-08-01T10:49:38;2.15;;;1.20;;
41837;SDS011;27511;52.042;5.178;2022-08-01T10:52:18;3.72;;;1.45;;
41837;SDS011;27511;52.042;5.178;2022-08-01T10:54:45;3.15;;;1.70;;
41837;SDS011;27511;52.042;5.178;2022-08-01T10:57:11;2.33;;;1.27;;
41837;SDS011;27511;52.042;5.178;2022-08-01T10:59:48;3.75;;;1.40;;
41837;SDS011;27511;52.042;5.178;2022-08-01T11:02:25;2.60;;;1.10;;
41837;SDS011;27511;52.042;5.178;2022-08-01T11:10:59;4.78;;;2.03;;
41837;SDS011;27511;52.042;5.178;2022-08-01T11:13:03;4.07;;;1.52;;
41837;SDS011;27511;52.042;5.178;2022-08-01T11:15:32;4.15;;;1.92;;
41837;SDS011;27511;52.042;5.178;2022-08-01T11:18:00;3.40;;;1.50;;
41837;SDS011;27511;52.042;5.178;2022-08-01T11:20:29;2.33;;;1.15;;
41837;SDS011;27511;52.042;5.178;2022-08-01T11:30:41;4.32;;;1.77;;
41837;SDS011;27511;52.042;5.178;2022-08-01T11:33:14;4.43;;;1.55;;
41837;SDS011;27511;52.042;5.178;2022-08-01T11:38:36;2.58;;;1.27;;
41837;SDS011;27511;52.042;5.178;2022-08-01T11:41:12;2.70;;;1.30;;
41837;SDS011;27511;52.042;5.178;2022-08-01T11:43:59;6.15;;;1.63;;
41837;SDS011;27511;52.042;5.178;2022-08-01T11:49:33;7.88;;;2.08;;
41837;SDS011;27511;52.042;5.178;2022-08-01T11:54:34;3.80;;;1.50;;
41837;SDS011;27511;52.042;5.178;2022-08-01T11:57:02;3.97;;;1.73;;
41837;SDS011;27511;52.042;5.178;2022-08-01T11:59:35;2.90;;;1.55;;
41837;SDS011;27511;52.042;5.178;2022-08-01T12:02:02;4.07;;;1.30;;
41837;SDS011;27511;52.042;5.178;2022-08-01T12:04:43;1.80;;;1.30;;
41837;SDS011;27511;52.042;5.178;2022-08-01T12:07:26;2.95;;;1.25;;
41837;SDS011;27511;52.042;5.178;2022-08-01T12:09:57;4.40;;;2.08;;
41837;SDS011;27511;52.042;5.178;2022-08-01T12:12:28;3.15;;;1.40;;
41837;SDS011;27511;52.042;5.178;2022-08-01T12:14:55;2.97;;;1.80;;
41837;SDS011;27511;52.042;5.178;2022-08-01T12:17:30;3.78;;;1.23;;
41837;SDS011;27511;52.042;5.178;2022-08-01T12:20:03;3.58;;;1.30;;
41837;SDS011;27511;52.042;5.178;2022-08-01T12:22:34;3.70;;;1.65;;
41837;SDS011;27511;52.042;5.178;2022-08-01T12:25:06;1.65;;;1.00;;
41837;SDS011;27511;52.042;5.178;2022-08-01T12:27:35;2.53;;;1.15;;
41837;SDS011;27511;52.042;5.178;2022-08-01T12:30:04;4.25;;;1.05;;
41837;SDS011;27511;52.042;5.178;2022-08-01T12:32:35;2.13;;;1.00;;
41837;SDS011;27511;52.042;5.178;2022-08-01T12:37:34;4.00;;;1.05;;
41837;SDS011;27511;52.042;5.178;2022-08-01T12:40:01;1.00;;;0.80;;
41837;SDS011;27511;52.042;5.178;2022-08-01T12:42:36;3.05;;;1.15;;
41837;SDS011;27511;52.042;5.178;2022-08-01T12:45:13;4.20;;;0.90;;
41837;SDS011;27511;52.042;5.178;2022-08-01T12:47:49;3.03;;;1.48;;
41837;SDS011;27511;52.042;5.178;2022-08-01T12:50:17;2.88;;;0.80;;
41837;SDS011;27511;52.042;5.178;2022-08-01T12:52:45;3.42;;;1.05;;
41837;SDS011;27511;52.042;5.178;2022-08-01T12:57:49;2.00;;;1.08;;
41837;SDS011;27511;52.042;5.178;2022-08-01T13:00:35;1.75;;;1.23;;
41837;SDS011;27511;52.042;5.178;2022-08-01T13:03:03;2.50;;;1.38;;
41837;SDS011;27511;52.042;5.178;2022-08-01T13:05:40;2.63;;;0.95;;
41837;SDS011;27511;52.042;5.178;2022-08-01T13:08:11;2.50;;;1.10;;
41837;SDS011;27511;52.042;5.178;2022-08-01T13:10:38;1.40;;;0.93;;
41837;SDS011;27511;52.042;5.178;2022-08-01T13:13:04;2.63;;;1.00;;
41837;SDS011;27511;52.042;5.178;2022-08-01T13:15:31;2.20;;;1.00;;
41837;SDS011;27511;52.042;5.178;2022-08-01T13:18:00;2.42;;;1.00;;
41837;SDS011;27511;52.042;5.178;2022-08-01T13:20:46;2.08;;;1.10;;
41837;SDS011;27511;52.042;5.178;2022-08-01T13:25:46;3.40;;;1.48;;
41837;SDS011;27511;52.042;5.178;2022-08-01T13:28:17;2.53;;;1.05;;
41837;SDS011;27511;52.042;5.178;2022-08-01T13:30:53;1.20;;;0.93;;
41837;SDS011;27511;52.042;5.178;2022-08-01T13:33:25;2.35;;;1.00;;
41837;SDS011;27511;52.042;5.178;2022-08-01T13:35:55;1.63;;;0.80;;
41837;SDS011;27511;52.042;5.178;2022-08-01T13:38:21;2.58;;;1.08;;
41837;SDS011;27511;52.042;5.178;2022-08-01T13:41:09;2.33;;;1.20;;
41837;SDS011;27511;52.042;5.178;2022-08-01T13:43:34;1.73;;;0.90;;
41837;SDS011;27511;52.042;5.178;2022-08-01T13:46:00;1.77;;;0.70;;
41837;SDS011;27511;52.042;5.178;2022-08-01T13:48:29;1.52;;;0.90;;
41837;SDS011;27511;52.042;5.178;2022-08-01T13:50:55;1.58;;;0.85;;
41837;SDS011;27511;52.042;5.178;2022-08-01T13:53:21;2.90;;;0.80;;
41837;SDS011;27511;52.042;5.178;2022-08-01T13:55:46;2.88;;;1.10;;
41837;SDS011;27511;52.042;5.178;2022-08-01T13:58:12;1.33;;;0.88;;
41837;SDS011;27511;52.042;5.178;2022-08-01T14:00:40;2.83;;;1.00;;
41837;SDS011;27511;52.042;5.178;2022-08-01T14:03:06;1.40;;;0.90;;
41837;SDS011;27511;52.042;5.178;2022-08-01T14:05:34;1.20;;;1.10;;
41837;SDS011;27511;52.042;5.178;2022-08-01T14:08:00;1.63;;;0.90;;
41837;SDS011;27511;52.042;5.178;2022-08-01T14:10:26;1.80;;;1.02;;
41837;SDS011;27511;52.042;5.178;2022-08-01T14:12:52;1.05;;;0.93;;
41837;SDS011;27511;52.042;5.178;2022-08-01T14:15:18;2.88;;;0.88;;
41837;SDS011;27511;52.042;5.178;2022-08-01T14:17:44;1.83;;;0.65;;
41837;SDS011;27511;52.042;5.178;2022-08-01T14:20:09;2.42;;;1.10;;
41837;SDS011;27511;52.042;5.178;2022-08-01T14:22:35;2.72;;;1.00;;
41837;SDS011;27511;52.042;5.178;2022-08-01T14:25:01;1.45;;;0.70;;
41837;SDS011;27511;52.042;5.178;2022-08-01T14:27:26;1.30;;;1.20;;
41837;SDS011;27511;52.042;5.178;2022-08-01T14:29:55;1.13;;;0.70;;
41837;SDS011;27511;52.042;5.178;2022-08-01T14:32:20;1.70;;;0.90;;
41837;SDS011;27511;52.042;5.178;2022-08-01T14:34:46;0.80;;;0.77;;
41837;SDS011;27511;52.042;5.178;2022-08-01T14:37:11;2.00;;;0.77;;
41837;SDS011;27511;52.042;5.178;2022-08-01T14:39:37;1.30;;;0.90;;
41837;SDS011;27511;52.042;5.178;2022-08-01T14:42:03;2.28;;;0.88;;
41837;SDS011;27511;52.042;5.178;2022-08-01T14:44:28;1.20;;;1.00;;
41837;SDS011;27511;52.042;5.178;2022-08-01T14:46:54;0.95;;;0.82;;
41837;SDS011;27511;52.042;5.178;2022-08-01T14:49:19;1.48;;;1.10;;
41837;SDS011;27511;52.042;5.178;2022-08-01T14:51:45;1.45;;;0.90;;
41837;SDS011;27511;52.042;5.178;2022-08-01T14:54:11;2.95;;;0.85;;
41837;SDS011;27511;52.042;5.178;2022-08-01T14:56:36;2.20;;;0.80;;
41837;SDS011;27511;52.042;5.178;2022-08-01T14:59:02;1.58;;;0.95;;
41837;SDS011;27511;52.042;5.178;2022-08-01T15:01:27;1.02;;;0.82;;
41837;SDS011;27511;52.042;5.178;2022-08-01T15:03:53;1.63;;;1.50;;
41837;SDS011;27511;52.042;5.178;2022-08-01T15:06:18;2.45;;;1.15;;
41837;SDS011;27511;52.042;5.178;2022-08-01T15:08:44;2.25;;;1.08;;
41837;SDS011;27511;52.042;5.178;2022-08-01T15:11:09;2.40;;;0.82;;
41837;SDS011;27511;52.042;5.178;2022-08-01T15:13:35;4.68;;;1.45;;
41837;SDS011;27511;52.042;5.178;2022-08-01T15:16:01;1.85;;;0.70;;
41837;SDS011;27511;52.042;5.178;2022-08-01T15:18:27;1.00;;;0.70;;
41837;SDS011;27511;52.042;5.178;2022-08-01T15:20:53;3.10;;;1.55;;
41837;SDS011;27511;52.042;5.178;2022-08-01T15:23:19;1.83;;;0.90;;
41837;SDS011;27511;52.042;5.178;2022-08-01T15:25:45;3.95;;;1.15;;
41837;SDS011;27511;52.042;5.178;2022-08-01T15:28:11;4.65;;;0.90;;
41837;SDS011;27511;52.042;5.178;2022-08-01T15:30:40;2.47;;;1.15;;
41837;SDS011;27511;52.042;5.178;2022-08-01T15:33:05;1.17;;;0.80;;
41837;SDS011;27511;52.042;5.178;2022-08-01T15:35:31;4.00;;;1.05;;